sensor_id;sensor_type;location;lat;lon;timestamp;pressure;altitude;pressure_sealevel;temperature;humidity
60258;BME280;46115;44.484;11.314;2023-05-01T00:03:41;100213.66;;;15.56;100.00
60258;BME280;46115;44.484;11.314;2023-05-01T00:07:43;100209.09;;;15.58;98.90
60258;BME280;46115;44.484;11.314;2023-05-01T00:11:46;100214.00;;;15.52;98.26
60258;BME280;46115;44.484;11.314;2023-05-01T00:15:50;100208.31;;;15.33;98.41
60258;BME280;46115;44.484;11.314;2023-05-01T00:19:53;100188.22;;;15.28;96.76
60258;BME280;46115;44.484;11.314;2023-05-01T00:23:55;100192.16;;;15.47;96.11
60258;BME280;46115;44.484;11.314;2023-05-01T00:27:58;100154.34;;;14.94;96.78
60258;BME280;46115;44.484;11.314;2023-05-01T00:32:02;100188.53;;;15.48;95.16
60258;BME280;46115;44.484;11.314;2023-05-01T00:36:05;100180.50;;;15.37;93.81
60258;BME280;46115;44.484;11.314;2023-05-01T00:40:09;100185.34;;;15.79;89.33
60258;BME280;46115;44.484;11.314;2023-05-01T00:44:11;100182.88;;;15.52;91.32
60258;BME280;46115;44.484;11.314;2023-05-01T00:48:15;100177.09;;;14.98;96.09
60258;BME280;46115;44.484;11.314;2023-05-01T00:52:18;100170.84;;;15.23;96.97
60258;BME280;46115;44.484;11.314;2023-05-01T00:56:20;100166.72;;;15.43;92.58
60258;BME280;46115;44.484;11.314;2023-05-01T01:00:23;100164.19;;;15.05;96.40
60258;BME280;46115;44.484;11.314;2023-05-01T01:04:27;100163.25;;;15.53;91.21
60258;BME280;46115;44.484;11.314;2023-05-01T01:08:37;100163.47;;;15.03;96.36
60258;BME280;46115;44.484;11.314;2023-05-01T01:12:50;100131.56;;;14.77;97.82
60258;BME280;46115;44.484;11.314;2023-05-01T01:16:58;100173.53;;;15.10;96.66
60258;BME280;46115;44.484;11.314;2023-05-01T01:21:07;100165.66;;;15.45;91.85
60258;BME280;46115;44.484;11.314;2023-05-01T01:25:37;100172.94;;;15.67;87.69
60258;BME280;46115;44.484;11.314;2023-05-01T01:29:55;100177.03;;;14.49;97.54
60258;BME280;46115;44.484;11.314;2023-05-01T01:34:03;100177.56;;;15.16;92.22
60258;BME280;46115;44.484;11.314;2023-05-01T01:38:15;100172.88;;;15.19;91.76
60258;BME280;46115;44.484;11.314;2023-05-01T01:42:21;100169.91;;;15.48;89.02
60258;BME280;46115;44.484;11.314;2023-05-01T01:46:27;100171.16;;;15.18;92.52
60258;BME280;46115;44.484;11.314;2023-05-01T01:50:32;100142.78;;;15.06;93.86
60258;BME280;46115;44.484;11.314;2023-05-01T01:54:37;100164.97;;;15.54;91.50
60258;BME280;46115;44.484;11.314;2023-05-01T01:58:43;100159.00;;;15.64;89.00
60258;BME280;46115;44.484;11.314;2023-05-01T02:02:47;100167.81;;;15.40;91.44
60258;BME280;46115;44.484;11.314;2023-05-01T02:06:52;100166.72;;;15.43;91.39
60258;BME280;46115;44.484;11.314;2023-05-01T02:10:56;100167.78;;;15.16;93.23
60258;BME280;46115;44.484;11.314;2023-05-01T02:15:00;100168.81;;;15.26;92.17
60258;BME280;46115;44.484;11.314;2023-05-01T02:19:04;100169.72;;;15.38;90.56
60258;BME280;46115;44.484;11.314;2023-05-01T02:23:09;100167.94;;;15.26;90.83
60258;BME280;46115;44.484;11.314;2023-05-01T02:27:15;100163.91;;;15.20;91.25
60258;BME280;46115;44.484;11.314;2023-05-01T02:31:18;100155.50;;;15.26;90.87
60258;BME280;46115;44.484;11.314;2023-05-01T02:35:20;100164.50;;;15.37;89.82
60258;BME280;46115;44.484;11.314;2023-05-01T02:39:24;100152.31;;;15.45;88.62
60258;BME280;46115;44.484;11.314;2023-05-01T02:43:27;100148.56;;;15.24;88.27
60258;BME280;46115;44.484;11.314;2023-05-01T02:47:37;100116.75;;;14.98;89.78
60258;BME280;46115;44.484;11.314;2023-05-01T02:51:40;100136.16;;;15.12;91.22
60258;BME280;46115;44.484;11.314;2023-05-01T02:55:44;100146.59;;;15.15;91.79
60258;BME280;46115;44.484;11.314;2023-05-01T02:59:47;100146.81;;;15.12;91.57
60258;BME280;46115;44.484;11.314;2023-05-01T03:03:49;100143.59;;;15.19;90.59
60258;BME280;46115;44.484;11.314;2023-05-01T03:07:52;100139.22;;;15.18;91.33
60258;BME280;46115;44.484;11.314;2023-05-01T03:11:56;100147.44;;;15.15;90.47
60258;BME280;46115;44.484;11.314;2023-05-01T03:15:58;100147.94;;;15.20;88.29
60258;BME280;46115;44.484;11.314;2023-05-01T03:20:01;100139.22;;;15.18;89.05
60258;BME280;46115;44.484;11.314;2023-05-01T03:24:06;100137.19;;;15.46;87.46
60258;BME280;46115;44.484;11.314;2023-05-01T03:28:10;100141.59;;;15.10;89.00
60258;BME280;46115;44.484;11.314;2023-05-01T03:32:13;100138.81;;;15.12;90.00
60258;BME280;46115;44.484;11.314;2023-05-01T03:36:17;100134.78;;;15.67;86.84
60258;BME280;46115;44.484;11.314;2023-05-01T03:40:21;100140.50;;;15.73;84.60
60258;BME280;46115;44.484;11.314;2023-05-01T03:44:57;100135.88;;;15.04;90.27
60258;BME280;46115;44.484;11.314;2023-05-01T03:49:00;100136.88;;;15.74;86.22
60258;BME280;46115;44.484;11.314;2023-05-01T03:53:06;100130.91;;;15.47;85.83
60258;BME280;46115;44.484;11.314;2023-05-01T03:57:08;100132.66;;;15.11;90.52
60258;BME280;46115;44.484;11.314;2023-05-01T04:01:12;100133.97;;;15.29;89.81
60258;BME280;46115;44.484;11.314;2023-05-01T04:05:18;100136.34;;;15.21;90.66
60258;BME280;46115;44.484;11.314;2023-05-01T04:09:25;100133.09;;;15.66;89.36
60258;BME280;46115;44.484;11.314;2023-05-01T04:13:31;100131.03;;;15.69;88.02
60258;BME280;46115;44.484;11.314;2023-05-01T04:17:35;100129.72;;;15.75;88.51
60258;BME280;46115;44.484;11.314;2023-05-01T04:21:38;100123.72;;;15.36;89.68
60258;BME280;46115;44.484;11.314;2023-05-01T04:25:40;100126.53;;;15.46;89.61
60258;BME280;46115;44.484;11.314;2023-05-01T04:29:46;100132.03;;;15.79;87.89
60258;BME280;46115;44.484;11.314;2023-05-01T04:33:53;100143.63;;;15.67;88.16
60258;BME280;46115;44.484;11.314;2023-05-01T04:37:56;100149.22;;;16.10;84.35
60258;BME280;46115;44.484;11.314;2023-05-01T04:41:58;100126.38;;;15.95;83.97
60258;BME280;46115;44.484;11.314;2023-05-01T04:46:02;100138.91;;;15.47;86.34
60258;BME280;46115;44.484;11.314;2023-05-01T04:50:07;100142.22;;;15.85;84.64
60258;BME280;46115;44.484;11.314;2023-05-01T04:54:09;100141.31;;;15.26;88.71
60258;BME280;46115;44.484;11.314;2023-05-01T04:58:12;100151.00;;;15.64;85.78
60258;BME280;46115;44.484;11.314;2023-05-01T05:02:15;100140.03;;;15.32;86.02
60258;BME280;46115;44.484;11.314;2023-05-01T05:06:19;100152.66;;;15.88;83.93
60258;BME280;46115;44.484;11.314;2023-05-01T05:10:22;100169.09;;;15.82;80.65
60258;BME280;46115;44.484;11.314;2023-05-01T05:14:38;100164.94;;;15.67;77.36
60258;BME280;46115;44.484;11.314;2023-05-01T05:18:41;100175.16;;;15.37;78.63
60258;BME280;46115;44.484;11.314;2023-05-01T05:22:45;100174.66;;;14.95;79.60
60258;BME280;46115;44.484;11.314;2023-05-01T05:26:57;100164.47;;;15.13;78.68
60258;BME280;46115;44.484;11.314;2023-05-01T05:30:59;100176.91;;;15.49;76.50
60258;BME280;46115;44.484;11.314;2023-05-01T05:35:03;100172.63;;;15.59;75.49
60258;BME280;46115;44.484;11.314;2023-05-01T05:39:06;100172.25;;;15.16;77.10
60258;BME280;46115;44.484;11.314;2023-05-01T05:43:09;100181.88;;;15.06;77.19
60258;BME280;46115;44.484;11.314;2023-05-01T05:47:13;100182.88;;;15.65;74.67
60258;BME280;46115;44.484;11.314;2023-05-01T05:51:15;100184.97;;;15.84;74.47
60258;BME280;46115;44.484;11.314;2023-05-01T05:55:19;100187.03;;;15.80;73.57
60258;BME280;46115;44.484;11.314;2023-05-01T05:59:42;100173.59;;;15.82;73.77
60258;BME280;46115;44.484;11.314;2023-05-01T06:03:46;100182.03;;;16.00;73.48
60258;BME280;46115;44.484;11.314;2023-05-01T06:07:48;100190.41;;;16.06;73.32
60258;BME280;46115;44.484;11.314;2023-05-01T06:11:52;100181.34;;;16.20;73.49
60258;BME280;46115;44.484;11.314;2023-05-01T06:15:55;100191.25;;;16.07;72.15
60258;BME280;46115;44.484;11.314;2023-05-01T06:19:58;100196.97;;;16.25;72.09
60258;BME280;46115;44.484;11.314;2023-05-01T06:24:02;100190.84;;;16.46;71.12
60258;BME280;46115;44.484;11.314;2023-05-01T06:28:17;100197.81;;;16.14;72.16
60258;BME280;46115;44.484;11.314;2023-05-01T06:32:19;100192.94;;;16.65;70.23
60258;BME280;46115;44.484;11.314;2023-05-01T06:36:23;100191.22;;;16.64;70.33
60258;BME280;46115;44.484;11.314;2023-05-01T06:40:26;100191.63;;;16.93;68.68
60258;BME280;46115;44.484;11.314;2023-05-01T06:44:30;100195.66;;;16.76;69.04
60258;BME280;46115;44.484;11.314;2023-05-01T06:48:34;100201.84;;;16.66;69.26
60258;BME280;46115;44.484;11.314;2023-05-01T06:52:36;100196.19;;;16.58;68.90
60258;BME280;46115;44.484;11.314;2023-05-01T06:56:41;100182.50;;;16.96;67.62
60258;BME280;46115;44.484;11.314;2023-05-01T07:00:44;100197.22;;;16.79;68.19
60258;BME280;46115;44.484;11.314;2023-05-01T07:04:47;100193.56;;;17.02;66.71
60258;BME280;46115;44.484;11.314;2023-05-01T07:08:49;100215.03;;;16.90;67.89
60258;BME280;46115;44.484;11.314;2023-05-01T07:12:52;100208.75;;;16.79;67.62
60258;BME280;46115;44.484;11.314;2023-05-01T07:16:55;100218.81;;;16.98;67.72
60258;BME280;46115;44.484;11.314;2023-05-01T07:20:58;100205.91;;;17.26;65.91
60258;BME280;46115;44.484;11.314;2023-05-01T07:25:00;100208.88;;;16.78;67.02
60258;BME280;46115;44.484;11.314;2023-05-01T07:29:03;100204.50;;;17.10;66.93
60258;BME280;46115;44.484;11.314;2023-05-01T07:33:07;100215.41;;;16.96;67.13
60258;BME280;46115;44.484;11.314;2023-05-01T07:37:09;100213.41;;;16.65;66.39
60258;BME280;46115;44.484;11.314;2023-05-01T07:41:12;100216.03;;;16.89;65.02
60258;BME280;46115;44.484;11.314;2023-05-01T07:45:14;100222.69;;;16.94;65.66
60258;BME280;46115;44.484;11.314;2023-05-01T07:49:18;100217.72;;;16.67;64.70
60258;BME280;46115;44.484;11.314;2023-05-01T07:53:20;100224.63;;;16.92;64.42
60258;BME280;46115;44.484;11.314;2023-05-01T08:01:40;100223.66;;;17.15;65.40
60258;BME280;46115;44.484;11.314;2023-05-01T08:05:44;100212.38;;;17.66;62.16
60258;BME280;46115;44.484;11.314;2023-05-01T08:09:46;100224.47;;;17.50;61.50
60258;BME280;46115;44.484;11.314;2023-05-01T08:13:49;100227.19;;;17.16;62.76
60258;BME280;46115;44.484;11.314;2023-05-01T08:17:51;100211.50;;;17.23;62.57
60258;BME280;46115;44.484;11.314;2023-05-01T08:21:55;100218.09;;;17.62;61.70
60258;BME280;46115;44.484;11.314;2023-05-01T08:25:57;100222.09;;;16.91;62.19
60258;BME280;46115;44.484;11.314;2023-05-01T08:30:00;100222.94;;;17.13;62.30
60258;BME280;46115;44.484;11.314;2023-05-01T08:34:02;100224.06;;;17.54;61.66
60258;BME280;46115;44.484;11.314;2023-05-01T08:38:06;100211.09;;;17.50;60.62
60258;BME280;46115;44.484;11.314;2023-05-01T08:42:08;100223.69;;;17.59;60.75
60258;BME280;46115;44.484;11.314;2023-05-01T08:46:12;100204.47;;;16.99;62.78
60258;BME280;46115;44.484;11.314;2023-05-01T08:50:17;100198.69;;;17.05;63.38
60258;BME280;46115;44.484;11.314;2023-05-01T08:54:22;100204.69;;;17.30;61.78
60258;BME280;46115;44.484;11.314;2023-05-01T08:58:28;100214.19;;;17.23;62.67
60258;BME280;46115;44.484;11.314;2023-05-01T09:02:33;100220.03;;;16.83;63.08
60258;BME280;46115;44.484;11.314;2023-05-01T09:06:37;100206.81;;;16.70;64.08
60258;BME280;46115;44.484;11.314;2023-05-01T09:10:44;100218.69;;;17.11;63.08
60258;BME280;46115;44.484;11.314;2023-05-01T09:14:47;100218.16;;;17.28;63.14
60258;BME280;46115;44.484;11.314;2023-05-01T09:18:51;100203.63;;;17.10;62.64
60258;BME280;46115;44.484;11.314;2023-05-01T09:22:56;100221.59;;;16.86;65.01
60258;BME280;46115;44.484;11.314;2023-05-01T09:26:59;100176.34;;;16.73;63.88
60258;BME280;46115;44.484;11.314;2023-05-01T09:31:19;100221.47;;;16.87;63.49
60258;BME280;46115;44.484;11.314;2023-05-01T09:35:21;100233.38;;;17.17;63.69
60258;BME280;46115;44.484;11.314;2023-05-01T09:39:24;100228.88;;;17.17;64.12
60258;BME280;46115;44.484;11.314;2023-05-01T09:43:29;100230.91;;;17.47;62.65
60258;BME280;46115;44.484;11.314;2023-05-01T09:47:31;100230.09;;;17.13;63.71
60258;BME280;46115;44.484;11.314;2023-05-01T09:51:35;100234.50;;;17.03;64.33
60258;BME280;46115;44.484;11.314;2023-05-01T09:55:38;100225.84;;;17.10;64.96
60258;BME280;46115;44.484;11.314;2023-05-01T09:59:41;100223.75;;;17.36;64.25
60258;BME280;46115;44.484;11.314;2023-05-01T10:03:44;100232.53;;;17.16;64.17
60258;BME280;46115;44.484;11.314;2023-05-01T10:07:55;100228.69;;;16.51;66.27
60258;BME280;46115;44.484;11.314;2023-05-01T10:11:58;100232.06;;;16.31;67.97
60258;BME280;46115;44.484;11.314;2023-05-01T10:16:02;100228.75;;;16.85;66.49
60258;BME280;46115;44.484;11.314;2023-05-01T10:20:09;100225.22;;;17.29;63.70
60258;BME280;46115;44.484;11.314;2023-05-01T10:24:12;100225.94;;;17.31;62.89
60258;BME280;46115;44.484;11.314;2023-05-01T10:28:16;100222.34;;;16.88;63.24
60258;BME280;46115;44.484;11.314;2023-05-01T10:32:20;100211.78;;;17.08;63.47
60258;BME280;46115;44.484;11.314;2023-05-01T10:36:25;100201.81;;;16.99;64.12
60258;BME280;46115;44.484;11.314;2023-05-01T10:40:47;100196.41;;;17.33;64.22
60258;BME280;46115;44.484;11.314;2023-05-01T10:44:50;100195.69;;;17.42;63.68
60258;BME280;46115;44.484;11.314;2023-05-01T10:48:55;100203.50;;;17.66;64.04
60258;BME280;46115;44.484;11.314;2023-05-01T10:53:17;100205.09;;;17.80;62.89
60258;BME280;46115;44.484;11.314;2023-05-01T10:57:40;100209.59;;;17.68;63.83
60258;BME280;46115;44.484;11.314;2023-05-01T11:01:44;100198.81;;;17.69;63.80
60258;BME280;46115;44.484;11.314;2023-05-01T11:06:05;100197.47;;;17.53;65.01
60258;BME280;46115;44.484;11.314;2023-05-01T11:10:25;100196.03;;;17.49;64.87
60258;BME280;46115;44.484;11.314;2023-05-01T11:15:00;100186.38;;;17.68;64.18
60258;BME280;46115;44.484;11.314;2023-05-01T11:19:04;100178.84;;;17.62;63.98
60258;BME280;46115;44.484;11.314;2023-05-01T11:23:16;100181.03;;;17.80;62.38
60258;BME280;46115;44.484;11.314;2023-05-01T11:27:19;100176.53;;;17.26;63.93
60258;BME280;46115;44.484;11.314;2023-05-01T11:31:24;100173.72;;;17.38;63.54
60258;BME280;46115;44.484;11.314;2023-05-01T11:35:27;100164.31;;;17.12;62.20
60258;BME280;46115;44.484;11.314;2023-05-01T11:39:31;100172.63;;;17.41;63.32
60258;BME280;46115;44.484;11.314;2023-05-01T11:43:47;100169.50;;;17.25;63.52
60258;BME280;46115;44.484;11.314;2023-05-01T11:47:50;100172.25;;;17.45;62.67
60258;BME280;46115;44.484;11.314;2023-05-01T11:51:55;100170.38;;;16.92;63.08
60258;BME280;46115;44.484;11.314;2023-05-01T11:55:59;100170.53;;;16.79;63.13
60258;BME280;46115;44.484;11.314;2023-05-01T12:00:04;100166.25;;;17.10;63.42
60258;BME280;46115;44.484;11.314;2023-05-01T12:04:22;100160.72;;;17.34;63.03
60258;BME280;46115;44.484;11.314;2023-05-01T12:08:25;100156.88;;;17.59;63.18
60258;BME280;46115;44.484;11.314;2023-05-01T12:12:29;100155.16;;;17.26;61.78
60258;BME280;46115;44.484;11.314;2023-05-01T12:16:31;100150.28;;;17.31;63.07
60258;BME280;46115;44.484;11.314;2023-05-01T12:20:35;100158.97;;;17.55;60.88
60258;BME280;46115;44.484;11.314;2023-05-01T12:24:47;100170.84;;;17.94;59.83
60258;BME280;46115;44.484;11.314;2023-05-01T12:29:00;100155.78;;;17.72;61.56
60258;BME280;46115;44.484;11.314;2023-05-01T12:33:08;100164.25;;;17.77;61.07
60258;BME280;46115;44.484;11.314;2023-05-01T12:37:11;100163.88;;;18.24;59.32
60258;BME280;46115;44.484;11.314;2023-05-01T12:41:14;100166.22;;;18.38;60.11
60258;BME280;46115;44.484;11.314;2023-05-01T12:45:18;100156.69;;;18.03;60.69
60258;BME280;46115;44.484;11.314;2023-05-01T12:49:21;100135.44;;;17.81;62.03
60258;BME280;46115;44.484;11.314;2023-05-01T12:53:25;100147.91;;;17.17;62.53
60258;BME280;46115;44.484;11.314;2023-05-01T12:57:28;100138.28;;;17.25;63.45
60258;BME280;46115;44.484;11.314;2023-05-01T13:01:34;100144.81;;;17.64;62.38
60258;BME280;46115;44.484;11.314;2023-05-01T13:05:49;100135.13;;;17.95;61.57
60258;BME280;46115;44.484;11.314;2023-05-01T13:09:52;100137.34;;;17.69;61.63
60258;BME280;46115;44.484;11.314;2023-05-01T13:14:05;100118.09;;;17.43;62.67
60258;BME280;46115;44.484;11.314;2023-05-01T13:18:10;100128.50;;;17.14;65.96
60258;BME280;46115;44.484;11.314;2023-05-01T13:22:13;100135.41;;;17.17;66.79
60258;BME280;46115;44.484;11.314;2023-05-01T13:26:16;100124.78;;;17.38;65.70
60258;BME280;46115;44.484;11.314;2023-05-01T13:30:20;100097.63;;;17.22;66.24
60258;BME280;46115;44.484;11.314;2023-05-01T13:34:29;100111.00;;;17.54;65.91
60258;BME280;46115;44.484;11.314;2023-05-01T13:38:34;100113.88;;;17.73;64.81
60258;BME280;46115;44.484;11.314;2023-05-01T13:42:42;100111.56;;;17.57;66.12
60258;BME280;46115;44.484;11.314;2023-05-01T13:46:45;100089.94;;;16.85;68.17
60258;BME280;46115;44.484;11.314;2023-05-01T13:50:49;100108.31;;;17.54;67.06
60258;BME280;46115;44.484;11.314;2023-05-01T13:54:52;100098.50;;;17.11;66.38
60258;BME280;46115;44.484;11.314;2023-05-01T13:58:58;100107.41;;;17.43;66.29
60258;BME280;46115;44.484;11.314;2023-05-01T14:03:00;100111.41;;;16.95;67.10
60258;BME280;46115;44.484;11.314;2023-05-01T14:07:04;100113.84;;;16.53;66.51
60258;BME280;46115;44.484;11.314;2023-05-01T14:11:08;100101.00;;;16.47;68.55
60258;BME280;46115;44.484;11.314;2023-05-01T14:15:11;100107.66;;;16.41;68.40
60258;BME280;46115;44.484;11.314;2023-05-01T14:19:14;100102.56;;;16.49;69.17
60258;BME280;46115;44.484;11.314;2023-05-01T14:23:19;100097.94;;;16.63;68.03
60258;BME280;46115;44.484;11.314;2023-05-01T14:27:22;100100.75;;;16.39;71.21
60258;BME280;46115;44.484;11.314;2023-05-01T14:31:26;100100.72;;;17.06;68.68
60258;BME280;46115;44.484;11.314;2023-05-01T14:35:29;100098.94;;;16.73;69.53
60258;BME280;46115;44.484;11.314;2023-05-01T14:39:33;100092.72;;;16.95;68.58
60258;BME280;46115;44.484;11.314;2023-05-01T14:43:39;100075.88;;;16.49;70.64
60258;BME280;46115;44.484;11.314;2023-05-01T14:47:44;100094.78;;;16.58;72.49
60258;BME280;46115;44.484;11.314;2023-05-01T14:51:48;100095.31;;;16.74;73.36
60258;BME280;46115;44.484;11.314;2023-05-01T14:55:51;100108.47;;;16.19;75.54
60258;BME280;46115;44.484;11.314;2023-05-01T14:59:54;100100.84;;;16.26;76.05
60258;BME280;46115;44.484;11.314;2023-05-01T15:03:57;100092.03;;;16.37;76.40
60258;BME280;46115;44.484;11.314;2023-05-01T15:07:59;100087.50;;;16.60;76.76
60258;BME280;46115;44.484;11.314;2023-05-01T15:12:03;100087.53;;;16.48;76.78
60258;BME280;46115;44.484;11.314;2023-05-01T15:16:06;100088.97;;;16.30;78.32
60258;BME280;46115;44.484;11.314;2023-05-01T15:20:10;100087.22;;;15.96;81.99
60258;BME280;46115;44.484;11.314;2023-05-01T15:24:13;100088.44;;;15.91;84.48
60258;BME280;46115;44.484;11.314;2023-05-01T15:28:16;100093.09;;;16.01;84.19
60258;BME280;46115;44.484;11.314;2023-05-01T15:32:19;100093.28;;;15.86;85.44
60258;BME280;46115;44.484;11.314;2023-05-01T15:36:21;100092.59;;;16.07;85.84
60258;BME280;46115;44.484;11.314;2023-05-01T15:40:23;100098.91;;;16.28;86.51
60258;BME280;46115;44.484;11.314;2023-05-01T15:44:27;100089.94;;;16.18;87.54
60258;BME280;46115;44.484;11.314;2023-05-01T15:48:31;100106.28;;;16.02;89.29
60258;BME280;46115;44.484;11.314;2023-05-01T15:52:34;100091.16;;;16.14;89.38
60258;BME280;46115;44.484;11.314;2023-05-01T15:56:36;100100.13;;;16.13;89.13
60258;BME280;46115;44.484;11.314;2023-05-01T16:00:40;100098.66;;;16.09;89.83
60258;BME280;46115;44.484;11.314;2023-05-01T16:04:44;100101.31;;;15.98;91.67
60258;BME280;46115;44.484;11.314;2023-05-01T16:08:47;100093.81;;;16.14;90.87
60258;BME280;46115;44.484;11.314;2023-05-01T16:12:51;100085.44;;;15.96;90.90
60258;BME280;46115;44.484;11.314;2023-05-01T16:16:55;100108.22;;;16.00;91.37
60258;BME280;46115;44.484;11.314;2023-05-01T16:20:58;100121.63;;;15.87;94.71
60258;BME280;46115;44.484;11.314;2023-05-01T16:25:02;100097.72;;;16.32;90.16
60258;BME280;46115;44.484;11.314;2023-05-01T16:29:05;100101.00;;;16.36;90.95
60258;BME280;46115;44.484;11.314;2023-05-01T16:33:13;100103.41;;;16.16;91.09
60258;BME280;46115;44.484;11.314;2023-05-01T16:37:24;100105.50;;;15.78;94.53
60258;BME280;46115;44.484;11.314;2023-05-01T16:41:26;100108.41;;;16.32;91.66
60258;BME280;46115;44.484;11.314;2023-05-01T16:45:30;100089.69;;;16.10;92.34
60258;BME280;46115;44.484;11.314;2023-05-01T16:49:35;100084.06;;;15.79;94.57
60258;BME280;46115;44.484;11.314;2023-05-01T16:53:41;100088.72;;;16.11;94.08
60258;BME280;46115;44.484;11.314;2023-05-01T16:57:43;100089.47;;;16.13;93.26
60258;BME280;46115;44.484;11.314;2023-05-01T17:01:45;100086.78;;;16.02;92.22
60258;BME280;46115;44.484;11.314;2023-05-01T17:05:49;100091.22;;;15.90;91.46
60258;BME280;46115;44.484;11.314;2023-05-01T17:09:52;100097.16;;;15.82;92.23
60258;BME280;46115;44.484;11.314;2023-05-01T17:13:54;100086.75;;;15.90;91.14
60258;BME280;46115;44.484;11.314;2023-05-01T17:17:56;100094.00;;;15.88;90.78
60258;BME280;46115;44.484;11.314;2023-05-01T17:22:00;100097.06;;;15.60;93.93
60258;BME280;46115;44.484;11.314;2023-05-01T17:26:03;100096.13;;;15.61;93.70
60258;BME280;46115;44.484;11.314;2023-05-01T17:30:07;100068.44;;;15.51;93.56
60258;BME280;46115;44.484;11.314;2023-05-01T17:34:10;100073.28;;;15.57;93.69
60258;BME280;46115;44.484;11.314;2023-05-01T17:38:13;100101.97;;;15.53;93.58
60258;BME280;46115;44.484;11.314;2023-05-01T17:42:17;100084.00;;;15.33;97.13
60258;BME280;46115;44.484;11.314;2023-05-01T17:46:19;100073.88;;;15.49;94.10
60258;BME280;46115;44.484;11.314;2023-05-01T17:50:21;100095.06;;;15.51;93.32
60258;BME280;46115;44.484;11.314;2023-05-01T17:54:26;100096.47;;;15.33;94.89
60258;BME280;46115;44.484;11.314;2023-05-01T17:58:28;100081.09;;;15.12;95.59
60258;BME280;46115;44.484;11.314;2023-05-01T18:02:31;100074.09;;;15.35;94.22
60258;BME280;46115;44.484;11.314;2023-05-01T18:06:33;100065.41;;;15.20;95.05
60258;BME280;46115;44.484;11.314;2023-05-01T18:10:37;100054.34;;;14.90;97.08
60258;BME280;46115;44.484;11.314;2023-05-01T18:14:40;100075.16;;;15.09;95.27
60258;BME280;46115;44.484;11.314;2023-05-01T18:18:42;100066.88;;;14.77;96.38
60258;BME280;46115;44.484;11.314;2023-05-01T18:22:45;100042.78;;;14.54;96.73
60258;BME280;46115;44.484;11.314;2023-05-01T18:26:49;100074.41;;;14.83;96.45
60258;BME280;46115;44.484;11.314;2023-05-01T18:30:51;100068.13;;;14.84;96.31
60258;BME280;46115;44.484;11.314;2023-05-01T18:34:54;100079.38;;;14.63;97.83
60258;BME280;46115;44.484;11.314;2023-05-01T18:38:56;100081.13;;;14.76;96.29
60258;BME280;46115;44.484;11.314;2023-05-01T18:43:00;100067.09;;;14.74;96.94
60258;BME280;46115;44.484;11.314;2023-05-01T18:47:02;100056.19;;;14.40;100.00
60258;BME280;46115;44.484;11.314;2023-05-01T18:51:05;100057.88;;;14.66;97.54
60258;BME280;46115;44.484;11.314;2023-05-01T18:55:08;100047.34;;;14.65;97.56
60258;BME280;46115;44.484;11.314;2023-05-01T18:59:12;100064.72;;;14.58;97.62
60258;BME280;46115;44.484;11.314;2023-05-01T19:03:16;100058.44;;;14.59;98.10
60258;BME280;46115;44.484;11.314;2023-05-01T22:06:08;99989.78;;;13.38;100.00
60258;BME280;46115;44.484;11.314;2023-05-01T22:10:13;99983.53;;;13.52;100.00
60258;BME280;46115;44.484;11.314;2023-05-01T22:14:16;99987.06;;;13.65;100.00
60258;BME280;46115;44.484;11.314;2023-05-01T22:18:18;99980.47;;;13.71;100.00
60258;BME280;46115;44.484;11.314;2023-05-01T22:22:23;99980.88;;;13.90;100.00
60258;BME280;46115;44.484;11.314;2023-05-01T22:26:26;99978.63;;;13.84;100.00
60258;BME280;46115;44.484;11.314;2023-05-01T22:30:28;99988.75;;;13.92;100.00
60258;BME280;46115;44.484;11.314;2023-05-01T22:34:31;99986.09;;;13.92;100.00
60258;BME280;46115;44.484;11.314;2023-05-01T22:38:35;99974.63;;;13.66;100.00
60258;BME280;46115;44.484;11.314;2023-05-01T22:42:37;99978.53;;;13.73;100.00
60258;BME280;46115;44.484;11.314;2023-05-01T22:46:40;99979.91;;;13.40;100.00
60258;BME280;46115;44.484;11.314;2023-05-01T22:50:42;99981.28;;;13.84;100.00
60258;BME280;46115;44.484;11.314;2023-05-01T22:54:46;99964.09;;;13.90;100.00
60258;BME280;46115;44.484;11.314;2023-05-01T22:58:50;99955.38;;;13.88;100.00
60258;BME280;46115;44.484;11.314;2023-05-01T23:02:53;99982.53;;;14.17;100.00
60258;BME280;46115;44.484;11.314;2023-05-01T23:06:55;99975.31;;;14.06;100.00
60258;BME280;46115;44.484;11.314;2023-05-01T23:10:59;99965.34;;;13.97;100.00
60258;BME280;46115;44.484;11.314;2023-05-01T23:15:03;99980.38;;;14.34;100.00
60258;BME280;46115;44.484;11.314;2023-05-01T23:19:17;99951.75;;;14.01;100.00
60258;BME280;46115;44.484;11.314;2023-05-01T23:23:20;99951.13;;;14.22;100.00
60258;BME280;46115;44.484;11.314;2023-05-01T23:27:24;99955.28;;;13.64;100.00
60258;BME280;46115;44.484;11.314;2023-05-01T23:31:26;99946.53;;;13.87;100.00
60258;BME280;46115;44.484;11.314;2023-05-01T23:35:29;99940.97;;;14.16;100.00
60258;BME280;46115;44.484;11.314;2023-05-01T23:39:31;99941.59;;;14.19;100.00
60258;BME280;46115;44.484;11.314;2023-05-01T23:43:37;99949.03;;;14.27;100.00
60258;BME280;46115;44.484;11.314;2023-05-01T23:47:39;99951.97;;;13.98;100.00
60258;BME280;46115;44.484;11.314;2023-05-01T23:51:42;99947.72;;;13.83;100.00
60258;BME280;46115;44.484;11.314;2023-05-01T23:55:44;99890.59;;;13.52;100.00
60258;BME280;46115;44.484;11.314;2023-05-01T23:59:48;99931.06;;;13.68;100.00
